Providence, Rhode Island
Traffic Map
Current Weather Conditions
Providence, Rhode Island
Overcast Light Rain
Overcast
11°
Feels Like: 11°
Wind Chill: 11° Ceiling: 1400
Heat Index: 11° Visibility: 10mi
Dew Point: Wind: 8mph
Humidity: 89% Direction: 320° (NW)
Pressure: 29.7in Gusts: 0mph
Raw Report DataKPVD 241100Z 32007KT 10SM -RA OVC014 11/09 A2970 RMK AO2 P0000 T01060089
Traffic Incident Summary
Active as of:
Severity:
Category:
InformationThere was an issue retrieving the traffic information for this location. Please try a different location or try again shortly.
Advertisements
Track Severe Weather on mobile